Time;durP1;ratioP1;P1;durP2;ratioP2;P2;SDS_P1;SDS_P2;PMS_P1;PMS_P2;Temp;Humidity;BMP_temperature;BMP_pressure;BME280_temperature;BME280_humidity;BME280_pressure;Samples;Min_cycle;Max_cycle;Signal;HPM_P1;HPM_P2
2022/01/31 00:00:10;;;;;;;31.25;4.82;;;;;;;6.39;39.16;100845.72;5017047;28;20407;-69
2022/01/31 00:02:37;;;;;;;28.83;4.30;;;;;;;6.49;39.27;100843.09;5013462;28;20077;-70
2022/01/31 00:05:04;;;;;;;33.42;4.50;;;;;;;6.41;39.21;100825.09;5010809;28;20046;-70
2022/01/31 00:07:30;;;;;;;35.83;5.97;;;;;;;6.62;38.88;100829.59;5013076;28;20513;-70
2022/01/31 00:09:57;;;;;;;31.23;4.32;;;;;;;6.37;39.44;100825.50;5013122;28;20464;-70
2022/01/31 00:12:29;;;;;;;33.65;4.18;;;;;;;6.24;39.94;100818.50;5016345;28;20045;-69
2022/01/31 00:15:01;;;;;;;29.15;5.13;;;;;;;6.39;40.09;100823.53;5024919;28;20128;-69
2022/01/31 00:17:27;;;;;;;34.25;6.10;;;;;;;6.35;40.29;100819.44;5020879;28;20100;-71
2022/01/31 00:19:54;;;;;;;44.95;5.35;;;;;;;6.41;40.43;100818.94;5011611;28;20394;-70
2022/01/31 00:22:20;;;;;;;33.80;5.65;;;;;;;6.51;40.51;100803.00;5018426;28;20042;-70
2022/01/31 00:24:47;;;;;;;37.42;5.55;;;;;;;6.58;40.66;100797.00;5013222;28;20077;-70
2022/01/31 00:27:13;;;;;;;33.13;5.53;;;;;;;6.52;40.91;100791.38;5002612;28;20050;-70
2022/01/31 00:29:40;;;;;;;38.35;5.43;;;;;;;6.23;41.84;100778.69;4979830;28;20084;-70
2022/01/31 00:32:07;;;;;;;41.20;6.07;;;;;;;6.23;42.25;100771.53;5034835;28;20124;-70
2022/01/31 00:34:33;;;;;;;49.60;5.22;;;;;;;6.47;41.72;100770.44;5032085;28;20461;-70
2022/01/31 00:37:00;;;;;;;40.92;5.47;;;;;;;6.17;42.97;100769.41;5032176;28;20109;-69
2022/01/31 00:39:26;;;;;;;43.95;5.72;;;;;;;6.53;42.36;100759.28;5031074;28;20128;-70
2022/01/31 00:41:53;;;;;;;39.58;5.72;;;;;;;6.62;42.41;100758.44;5031143;28;20065;-71
2022/01/31 00:44:38;;;;;;;38.50;5.07;;;;;;;6.46;42.67;100753.63;5031242;28;20073;-70
2022/01/31 00:47:15;;;;;;;37.33;5.85;;;;;;;6.44;42.71;100754.72;5032203;28;20073;-70
2022/01/31 00:49:49;;;;;;;39.83;5.82;;;;;;;6.33;43.54;100744.16;5031813;28;20052;-70
2022/01/31 00:52:17;;;;;;;52.38;5.65;;;;;;;5.65;45.04;100746.31;5031312;28;20397;-70
2022/01/31 00:54:44;;;;;;;43.10;6.25;;;;;;;5.87;44.70;100758.66;5013239;28;20466;-70
2022/01/31 00:57:10;;;;;;;48.08;5.55;;;;;;;5.47;45.48;100754.84;5012543;28;20046;-70
2022/01/31 00:59:37;;;;;;;47.75;6.32;;;;;;;5.81;45.52;100749.41;5013795;28;20054;-70
2022/01/31 01:02:03;;;;;;;41.17;5.03;;;;;;;6.05;45.07;100749.16;5023645;28;20041;-69
2022/01/31 01:04:30;;;;;;;39.40;5.88;;;;;;;6.19;45.10;100735.50;5046653;28;20060;-70
2022/01/31 01:06:57;;;;;;;42.15;6.00;;;;;;;6.06;45.40;100734.00;5071634;28;20067;-70
2022/01/31 01:09:23;;;;;;;42.97;5.38;;;;;;;5.92;45.90;100727.19;5070309;28;20102;-70
2022/01/31 01:11:50;;;;;;;50.42;7.00;;;;;;;6.19;45.79;100719.50;5071665;28;20049;-69
2022/01/31 01:14:16;;;;;;;39.85;5.90;;;;;;;6.05;45.83;100711.84;5071405;28;20519;-70
2022/01/31 01:16:43;;;;;;;50.15;6.13;;;;;;;6.39;45.14;100708.97;5052694;28;20114;-70
2022/01/31 01:19:09;;;;;;;45.72;6.68;;;;;;;6.13;45.33;100705.88;5052926;28;20071;-70
2022/01/31 01:21:36;;;;;;;35.60;5.55;;;;;;;6.66;44.38;100698.53;5054627;28;20094;-70
2022/01/31 01:24:02;;;;;;;54.88;7.90;;;;;;;6.57;44.27;100695.88;5050738;28;20049;-69
2022/01/31 01:26:29;;;;;;;47.20;7.00;;;;;;;6.44;44.56;100688.09;5054519;28;20049;-70
2022/01/31 01:28:55;;;;;;;41.80;6.15;;;;;;;6.73;44.12;100674.84;5050123;28;20068;-70
2022/01/31 01:31:22;;;;;;;49.17;5.97;;;;;;;6.48;44.01;100665.53;5051087;28;20041;-70
2022/01/31 01:33:48;;;;;;;42.53;6.70;;;;;;;6.37;44.72;100671.81;5037786;28;20045;-70
2022/01/31 01:36:15;;;;;;;40.00;6.13;;;;;;;6.31;44.21;100658.16;5050889;28;20657;-70
2022/01/31 01:38:41;;;;;;;51.47;6.53;;;;;;;6.43;43.98;100652.63;5048409;28;20117;-70
2022/01/31 01:41:08;;;;;;;43.28;6.32;;;;;;;6.71;43.42;100651.00;5050841;28;20497;-70
2022/01/31 01:43:35;;;;;;;42.08;6.00;;;;;;;6.56;43.34;100639.03;5053823;28;20068;-70
2022/01/31 01:46:01;;;;;;;42.97;5.97;;;;;;;6.62;43.22;100632.31;5067346;28;20052;-70
2022/01/31 01:48:28;;;;;;;49.03;7.53;;;;;;;6.60;42.81;100627.13;5071983;28;20052;-69
2022/01/31 01:50:56;;;;;;;45.10;5.68;;;;;;;6.76;42.45;100623.09;5066125;28;20071;-70
2022/01/31 01:53:24;;;;;;;41.03;6.00;;;;;;;6.67;42.62;100612.28;5050834;28;20041;-70
2022/01/31 01:55:52;;;;;;;35.22;6.35;;;;;;;6.29;43.24;100604.16;5051375;28;20049;-70
2022/01/31 01:58:20;;;;;;;39.40;5.57;;;;;;;5.90;43.87;100596.00;5044221;28;20128;-70
2022/01/31 02:00:50;;;;;;;49.88;6.40;;;;;;;6.64;42.08;100585.06;5051389;28;20114;-70
2022/01/31 02:03:18;;;;;;;50.90;6.03;;;;;;;6.60;42.16;100589.81;5029481;28;20068;-70
2022/01/31 02:09:41;;;;;;;49.85;5.53;;;;;;;6.39;42.37;100570.41;5030591;28;20048;-70
2022/01/31 02:12:08;;;;;;;46.75;6.65;;;;;;;6.62;41.65;100571.84;5030567;28;20051;-70
2022/01/31 02:14:35;;;;;;;32.20;5.07;;;;;;;6.19;42.40;100570.34;5029628;28;20065;-70
2022/01/31 02:17:02;;;;;;;42.40;4.78;;;;;;;6.39;42.06;100567.72;5031028;28;20129;-71
2022/01/31 02:19:28;;;;;;;49.70;5.72;;;;;;;6.39;41.74;100559.75;5031347;28;20511;-70
2022/01/31 02:21:55;;;;;;;42.22;6.13;;;;;;;6.45;41.65;100548.53;5030399;28;20621;-70
2022/01/31 02:24:22;;;;;;;50.60;6.28;;;;;;;6.52;41.43;100543.50;5030072;28;20069;-70
2022/01/31 02:26:48;;;;;;;43.60;5.97;;;;;;;6.19;42.10;100538.38;5030408;28;20045;-70
2022/01/31 02:29:16;;;;;;;52.55;6.15;;;;;;;5.93;42.82;100532.66;5030271;28;20371;-70
2022/01/31 02:31:47;;;;;;;34.75;5.65;;;;;;;5.98;42.68;100522.47;5031011;28;20128;-70
2022/01/31 02:34:15;;;;;;;;;;;;;;;6.51;41.43;100518.69;5030190;28;20132;-70
2022/01/31 02:36:42;;;;;;;48.53;5.95;;;;;;;6.30;41.69;100512.63;5028347;28;19945;-70
2022/01/31 02:39:09;;;;;;;45.03;6.25;;;;;;;6.41;41.52;100507.16;5030003;28;20072;-70
2022/01/31 02:41:43;;;;;;;43.92;6.72;;;;;;;6.16;42.20;100513.81;5029657;28;20049;-70
2022/01/31 02:44:15;;;;;;;65.47;7.07;;;;;;;6.22;42.17;100505.28;5030568;28;20501;-70
2022/01/31 02:46:54;;;;;;;40.47;5.93;;;;;;;6.28;42.17;100491.44;5029271;28;20144;-70
2022/01/31 02:49:26;;;;;;;45.78;6.47;;;;;;;6.60;41.26;100488.53;5030697;28;20128;-70
2022/01/31 02:51:57;;;;;;;55.75;6.70;;;;;;;6.71;40.48;100480.38;5036024;28;20057;-70
2022/01/31 02:54:25;;;;;;;53.20;5.72;;;;;;;6.32;41.74;100473.34;5034416;28;20088;-70
2022/01/31 02:56:52;;;;;;;45.88;6.88;;;;;;;6.52;41.35;100464.38;5034377;28;20046;-70
2022/01/31 02:59:18;;;;;;;44.15;6.40;;;;;;;6.41;41.22;100464.53;5029991;28;20073;-69
2022/01/31 03:01:45;;;;;;;53.08;6.97;;;;;;;6.37;41.55;100450.66;5033845;28;20142;-70
2022/01/31 03:04:12;;;;;;;34.45;5.90;;;;;;;6.12;41.97;100457.31;5061993;28;20349;-70
2022/01/31 03:06:42;;;;;;;63.97;6.75;;;;;;;5.89;42.40;100445.22;5074078;28;20544;-69
2022/01/31 03:09:09;;;;;;;32.35;5.55;;;;;;;5.88;42.44;100443.53;5073450;28;20095;-70
2022/01/31 03:11:35;;;;;;;41.80;6.63;;;;;;;6.28;41.73;100445.31;5073380;28;20076;-70
2022/01/31 03:14:02;;;;;;;43.55;6.95;;;;;;;6.00;42.11;100437.09;5062594;28;20513;-70
2022/01/31 03:16:29;;;;;;;49.00;6.82;;;;;;;6.23;41.60;100443.88;5072256;28;20454;-70
2022/01/31 03:18:56;;;;;;;44.85;6.30;;;;;;;6.20;41.54;100435.31;5073294;28;20481;-69
2022/01/31 03:21:22;;;;;;;44.85;5.93;;;;;;;6.02;41.80;100426.34;5072988;28;20473;-68
2022/01/31 03:23:50;;;;;;;44.60;6.47;;;;;;;5.67;42.76;100412.53;5061070;28;20049;-69
2022/01/31 03:26:17;;;;;;;53.63;7.00;;;;;;;5.94;42.03;100405.69;5061085;28;20048;-70
2022/01/31 03:28:44;;;;;;;55.70;7.70;;;;;;;5.62;42.78;100405.91;5067407;28;20127;-70
2022/01/31 03:31:11;;;;;;;41.28;6.65;;;;;;;5.67;42.53;100404.53;5055465;28;20045;-69
2022/01/31 03:33:37;;;;;;;42.42;6.40;;;;;;;6.02;42.00;100389.88;5072293;28;20443;-69
2022/01/31 03:36:04;;;;;;;47.58;7.90;;;;;;;6.16;41.57;100384.16;5065862;28;20042;-70
2022/01/31 03:38:30;;;;;;;41.55;6.18;;;;;;;6.10;41.94;100376.72;5072884;28;20484;-70
2022/01/31 03:40:57;;;;;;;48.55;6.35;;;;;;;6.27;41.41;100367.22;5065770;28;20064;-70
2022/01/31 03:43:23;;;;;;;53.08;6.97;;;;;;;6.21;41.54;100360.59;5073377;28;20075;-70
2022/01/31 03:45:50;;;;;;;57.65;6.57;;;;;;;6.26;41.02;100351.38;5068577;28;20064;-70
2022/01/31 03:48:19;;;;;;;54.67;7.20;;;;;;;6.01;41.82;100342.94;5060525;28;20045;-70
2022/01/31 03:50:45;;;;;;;45.13;6.13;;;;;;;6.11;41.65;100335.78;5064525;28;20118;-70
2022/01/31 03:53:12;;;;;;;55.70;7.03;;;;;;;6.29;41.14;100327.97;5071931;28;20086;-70
2022/01/31 03:55:38;;;;;;;52.95;7.68;;;;;;;6.46;40.66;100324.56;5069801;28;20424;-70
2022/01/31 03:58:05;;;;;;;47.10;7.90;;;;;;;6.34;40.89;100319.53;5051650;28;20109;-70
2022/01/31 04:00:31;;;;;;;49.25;7.22;;;;;;;6.50;40.48;100303.81;5063192;28;20131;-70
2022/01/31 04:02:58;;;;;;;45.13;6.72;;;;;;;6.42;40.88;100296.50;5070933;28;20481;-70
2022/01/31 04:05:24;;;;;;;55.50;7.35;;;;;;;6.10;41.49;100288.81;5056131;28;20056;-70
2022/01/31 04:07:51;;;;;;;48.53;6.55;;;;;;;6.20;41.37;100284.31;5045048;28;20045;-69
2022/01/31 04:10:18;;;;;;;49.58;7.32;;;;;;;5.69;42.03;100284.63;5053934;28;24281;-69
2022/01/31 04:12:45;;;;;;;58.03;7.63;;;;;;;6.28;40.96;100272.97;5062059;28;20045;-70
2022/01/31 04:15:11;;;;;;;48.58;6.15;;;;;;;6.19;41.10;100271.16;5059862;28;20094;-70
2022/01/31 04:17:39;;;;;;;56.50;6.78;;;;;;;5.98;41.67;100264.19;5071701;28;20056;-70
2022/01/31 04:20:07;;;;;;;57.33;6.32;;;;;;;6.34;40.86;100252.94;5058459;28;20071;-70
2022/01/31 04:22:38;;;;;;;49.88;6.93;;;;;;;6.37;40.77;100242.81;5052459;28;20049;-70
2022/01/31 04:25:07;;;;;;;48.20;6.25;;;;;;;6.55;40.55;100236.72;5052439;28;20118;-70
2022/01/31 04:27:44;;;;;;;46.90;6.85;;;;;;;6.20;41.40;100236.38;5059350;28;20048;-70
2022/01/31 04:30:13;;;;;;;52.03;7.03;;;;;;;6.31;41.03;100227.41;5053941;28;20045;-70
2022/01/31 04:32:40;;;;;;;48.25;6.45;;;;;;;6.25;41.04;100214.63;5051892;28;20084;-70
2022/01/31 04:35:07;;;;;;;43.75;5.68;;;;;;;6.29;41.04;100210.75;5041339;28;20040;-70
2022/01/31 04:37:33;;;;;;;46.35;5.88;;;;;;;6.09;40.94;100199.25;5071073;28;20091;-70
2022/01/31 04:39:59;;;;;;;48.50;7.65;;;;;;;6.19;40.96;100197.41;5071469;28;20131;-69
2022/01/31 04:42:26;;;;;;;44.30;6.63;;;;;;;6.28;41.14;100201.06;5071146;28;20044;-69
2022/01/31 04:44:57;;;;;;;60.63;6.88;;;;;;;5.95;41.47;100191.72;5067411;28;20511;-69
2022/01/31 04:47:23;;;;;;;52.25;8.15;;;;;;;6.02;41.46;100184.84;5057598;28;20064;-70
2022/01/31 04:49:51;;;;;;;53.13;7.43;;;;;;;5.89;41.77;100179.00;5064515;28;20072;-69
2022/01/31 04:52:18;;;;;;;54.35;6.72;;;;;;;6.34;40.76;100165.00;5072172;28;20123;-70
2022/01/31 04:54:44;;;;;;;48.17;6.20;;;;;;;5.93;41.47;100159.06;5066697;28;20127;-70
2022/01/31 04:57:11;;;;;;;54.70;8.05;;;;;;;5.37;43.04;100155.38;5053158;28;20048;-70
2022/01/31 04:59:41;;;;;;;52.03;7.07;;;;;;;5.24;43.40;100147.66;5071606;28;20076;-70
2022/01/31 05:02:08;;;;;;;56.20;7.03;;;;;;;5.49;42.72;100148.94;5070711;28;20095;-70
2022/01/31 05:04:34;;;;;;;59.53;6.57;;;;;;;5.66;42.58;100141.19;5062614;28;20278;-70
2022/01/31 05:07:01;;;;;;;57.58;8.18;;;;;;;5.80;42.24;100138.09;5054326;28;20091;-69
2022/01/31 05:09:28;;;;;;;54.95;8.00;;;;;;;5.40;42.71;100138.28;5059854;28;20468;-70
2022/01/31 05:11:54;;;;;;;45.78;6.28;;;;;;;5.90;41.97;100138.06;5070665;28;20048;-70
2022/01/31 05:14:21;;;;;;;49.55;5.85;;;;;;;5.36;43.04;100132.41;5071374;28;20131;-70
2022/01/31 05:16:47;;;;;;;60.35;7.78;;;;;;;5.15;43.61;100132.56;5066161;28;20052;-68
2022/01/31 05:19:14;;;;;;;50.17;6.47;;;;;;;5.32;43.26;100116.88;5054022;28;20094;-69
2022/01/31 05:21:40;;;;;;;54.10;7.50;;;;;;;5.00;43.36;100112.66;5072760;28;20401;-69
2022/01/31 05:24:07;;;;;;;52.10;6.35;;;;;;;5.16;43.55;100114.78;5065896;28;20045;-69
2022/01/31 05:26:34;;;;;;;54.75;7.35;;;;;;;5.45;42.61;100101.47;5052099;28;20102;-69
2022/01/31 05:29:00;;;;;;;53.40;7.97;;;;;;;5.26;43.31;100100.50;5047628;28;20076;-69
2022/01/31 05:31:27;;;;;;;70.53;7.00;;;;;;;5.08;43.49;100090.72;5052901;28;20049;-69
2022/01/31 05:33:54;;;;;;;54.75;6.78;;;;;;;4.81;44.00;100094.91;5067138;28;20044;-69
2022/01/31 05:36:21;;;;;;;40.25;7.43;;;;;;;5.52;42.78;100078.63;5070191;28;20072;-69
2022/01/31 05:38:48;;;;;;;53.42;7.35;;;;;;;5.69;42.33;100066.41;5071777;28;20131;-70
2022/01/31 05:41:18;;;;;;;55.80;8.13;;;;;;;5.15;43.63;100062.59;5072016;28;20067;-70
2022/01/31 05:43:46;;;;;;;45.22;6.97;;;;;;;5.08;43.61;100054.34;5071761;28;20044;-70
2022/01/31 05:46:13;;;;;;;52.38;6.35;;;;;;;4.64;44.58;100053.91;5050335;28;20052;-69
2022/01/31 05:48:39;;;;;;;64.78;7.25;;;;;;;5.08;43.59;100033.06;5069912;28;20424;-70
2022/01/31 05:51:14;;;;;;;51.75;6.10;;;;;;;4.99;43.59;100037.41;5064806;28;20101;-70
2022/01/31 05:53:41;;;;;;;38.40;6.85;;;;;;;5.60;42.40;100030.88;5051793;28;20059;-70
2022/01/31 05:56:08;;;;;;;46.83;6.30;;;;;;;5.23;43.51;100031.63;5065213;28;20091;-70
2022/01/31 05:58:35;;;;;;;52.30;6.40;;;;;;;4.90;44.13;100027.63;5069661;28;20446;-69
2022/01/31 06:01:01;;;;;;;52.72;6.53;;;;;;;4.81;44.20;100016.00;5059373;28;20068;-70
2022/01/31 06:03:28;;;;;;;48.53;6.63;;;;;;;4.57;44.99;100015.59;5061394;28;20071;-70
2022/01/31 06:05:55;;;;;;;49.80;6.85;;;;;;;4.86;44.23;100010.25;5070935;28;20040;-69
2022/01/31 06:08:21;;;;;;;50.15;6.90;;;;;;;4.39;44.86;100014.59;5055329;28;20130;-68
2022/01/31 06:10:49;;;;;;;49.88;6.72;;;;;;;4.30;44.92;100013.56;5051047;28;20048;-69
2022/01/31 06:13:25;;;;;;;64.00;7.63;;;;;;;4.69;44.79;99997.69;5050544;28;20060;-70
2022/01/31 06:15:51;;;;;;;54.85;7.25;;;;;;;4.98;43.39;99989.72;5057510;28;20079;-70
2022/01/31 06:18:18;;;;;;;46.88;7.07;;;;;;;4.24;45.16;99976.94;5070846;28;20052;-70
2022/01/31 06:20:45;;;;;;;41.78;7.10;;;;;;;4.03;45.52;99977.03;5070611;28;20048;-70
2022/01/31 06:23:12;;;;;;;64.35;6.80;;;;;;;4.16;45.71;99974.97;5071001;28;20048;-70
2022/01/31 06:25:39;;;;;;;55.22;6.55;;;;;;;4.35;45.10;99966.19;5072383;28;20049;-70
2022/01/31 06:28:06;;;;;;;50.55;6.60;;;;;;;4.53;44.81;99958.41;5065149;28;20079;-70
2022/01/31 06:30:34;;;;;;;60.35;7.22;;;;;;;4.76;44.24;99956.28;5074959;28;20064;-70
2022/01/31 06:33:00;;;;;;;54.88;7.13;;;;;;;4.30;44.90;99952.47;5049323;28;20463;-70
2022/01/31 06:35:29;;;;;;;68.85;7.88;;;;;;;4.58;44.62;99943.72;5055370;28;20049;-70
2022/01/31 06:37:56;;;;;;;37.25;6.32;;;;;;;4.22;45.69;99939.91;5055196;28;20455;-70
2022/01/31 06:40:23;;;;;;;45.72;6.00;;;;;;;4.96;43.68;99935.84;5054764;28;20048;-70
2022/01/31 06:42:49;;;;;;;52.38;7.85;;;;;;;4.77;44.14;99931.41;5054992;28;20048;-71
2022/01/31 06:45:16;;;;;;;54.95;8.15;;;;;;;4.44;44.95;99914.09;5066225;28;20068;-70
2022/01/31 06:47:42;;;;;;;56.38;7.50;;;;;;;4.86;43.47;99908.44;5058208;28;20112;-71
2022/01/31 06:50:09;;;;;;;43.47;6.93;;;;;;;5.04;43.40;99902.25;5075191;28;20040;-70
2022/01/31 06:52:37;;;;;;;41.92;6.78;;;;;;;4.66;43.71;99899.66;5065598;28;20102;-70
2022/01/31 06:55:06;;;;;;;63.35;6.78;;;;;;;4.38;44.67;99893.41;5056205;28;20475;-70
2022/01/31 06:57:34;;;;;;;49.08;6.68;;;;;;;4.15;45.44;99895.47;5052483;28;20120;-70
2022/01/31 07:00:07;;;;;;;47.72;6.68;;;;;;;4.48;44.36;99881.78;5049302;28;20075;-70
2022/01/31 07:06:41;;;;;;;50.00;6.88;;;;;;;4.62;44.00;99879.66;5070821;28;20191;-70
2022/01/31 07:09:09;;;;;;;49.35;6.35;;;;;;;4.38;44.91;99877.47;5067536;28;20051;-69
2022/01/31 07:11:39;;;;;;;52.13;7.63;;;;;;;4.32;44.46;99866.41;5053438;28;20041;-69
2022/01/31 07:14:14;;;;;;;47.08;7.53;;;;;;;3.92;45.09;99868.34;5067391;28;20454;-69
2022/01/31 07:16:42;;;;;;;49.95;8.63;;;;;;;4.51;44.10;99862.06;5055647;28;20048;-71
2022/01/31 07:19:09;;;;;;;49.67;7.80;;;;;;;4.64;43.97;99870.59;5076941;28;20377;-69
2022/01/31 07:21:46;;;;;;;42.25;6.53;;;;;;;4.64;43.59;99861.78;5069256;28;20048;-69
2022/01/31 07:24:21;;;;;;;49.85;7.00;;;;;;;4.56;44.09;99867.81;5051481;28;20045;-71
2022/01/31 07:26:49;;;;;;;50.60;7.05;;;;;;;4.23;44.55;99861.94;5053322;28;20097;-71
2022/01/31 07:29:17;;;;;;;65.43;8.55;;;;;;;4.46;44.21;99857.19;5053141;28;20072;-71
2022/01/31 07:31:45;;;;;;;45.92;7.20;;;;;;;4.19;44.45;99863.19;5052447;28;20049;-71
2022/01/31 07:34:14;;;;;;;44.03;6.95;;;;;;;4.56;44.32;99854.53;5053650;28;20045;-71
2022/01/31 07:36:42;;;;;;;49.08;7.95;;;;;;;4.81;43.54;99853.91;5052006;28;20075;-71
2022/01/31 07:39:09;;;;;;;51.35;6.85;;;;;;;4.32;44.54;99846.97;5053816;28;20158;-71
2022/01/31 07:41:39;;;;;;;42.58;6.80;;;;;;;4.28;44.82;99845.59;5065723;28;20512;-72
2022/01/31 07:44:06;;;;;;;71.55;8.07;;;;;;;4.18;44.47;99836.78;5059576;28;20196;-72
2022/01/31 07:46:33;;;;;;;51.63;7.10;;;;;;;4.21;45.10;99840.00;5073055;28;20515;-72
2022/01/31 07:49:00;;;;;;;48.05;7.30;;;;;;;4.47;44.33;99837.63;5058641;28;20047;-71
2022/01/31 07:51:26;;;;;;;55.05;8.05;;;;;;;4.04;45.87;99835.41;5052165;28;20132;-72
2022/01/31 07:53:53;;;;;;;47.95;7.38;;;;;;;4.39;44.87;99831.34;5056915;28;20127;-72
2022/01/31 07:56:20;;;;;;;53.78;8.13;;;;;;;4.26;45.07;99831.59;5068622;28;20099;-71
2022/01/31 07:58:47;;;;;;;45.03;6.45;;;;;;;4.22;45.15;99823.09;5052274;28;20450;-71
2022/01/31 08:01:14;;;;;;;43.05;7.78;;;;;;;4.25;45.04;99809.53;5063547;28;20052;-70
2022/01/31 08:03:41;;;;;;;52.35;7.10;;;;;;;4.04;45.38;99806.22;5051477;28;20112;-70
2022/01/31 08:06:07;;;;;;;50.90;7.78;;;;;;;4.39;45.08;99797.66;5051161;28;20068;-70
2022/01/31 08:08:35;;;;;;;64.22;7.45;;;;;;;4.02;45.23;99790.41;5061390;28;20540;-71
2022/01/31 08:11:04;;;;;;;47.75;6.50;;;;;;;4.48;44.65;99777.38;5072103;28;20040;-71
2022/01/31 08:13:33;;;;;;;60.92;7.43;;;;;;;4.06;45.63;99788.31;5071207;28;20040;-71
2022/01/31 08:18:44;;;;;;;46.97;6.63;;;;;;;3.94;46.05;99784.13;5052719;28;20045;-71
2022/01/31 08:21:13;;;;;;;59.72;6.40;;;;;;;4.02;45.58;99781.63;5071231;28;20040;-71
2022/01/31 08:23:40;;;;;;;44.67;7.47;;;;;;;3.68;46.13;99771.41;5064016;28;20048;-71
2022/01/31 08:26:11;;;;;;;65.32;7.53;;;;;;;3.93;45.71;99772.69;5051614;28;20067;-72
2022/01/31 08:31:11;;;;;;;56.08;7.60;;;;;;;3.85;46.16;99769.88;5053138;28;20087;-73
2022/01/31 08:33:40;;;;;;;56.38;6.38;;;;;;;4.39;45.06;99776.44;5071686;28;20056;-73
2022/01/31 08:36:08;;;;;;;49.85;7.35;;;;;;;4.27;45.29;99770.38;5073768;28;20399;-73
2022/01/31 08:38:38;;;;;;;49.13;7.05;;;;;;;4.59;44.38;99761.28;5073284;28;20044;-74
2022/01/31 08:41:06;;;;;;;54.72;8.85;;;;;;;4.64;44.61;99755.53;5073436;28;20044;-73
2022/01/31 08:43:34;;;;;;;45.22;7.25;;;;;;;4.64;44.29;99761.66;5055028;28;20049;-73
2022/01/31 08:46:01;;;;;;;48.72;6.97;;;;;;;4.58;44.40;99746.31;5071117;28;20400;-75
2022/01/31 08:48:28;;;;;;;52.35;7.40;;;;;;;4.67;44.22;99748.09;5065198;28;20083;-74
2022/01/31 08:50:54;;;;;;;40.50;6.57;;;;;;;4.77;44.38;99746.22;5059311;28;20132;-73
2022/01/31 08:53:21;;;;;;;89.20;9.07;;;;;;;4.80;43.89;99743.28;5066681;28;20044;-74
2022/01/31 08:55:53;;;;;;;57.22;7.65;;;;;;;4.34;45.02;99734.31;5071504;28;20080;-74
2022/01/31 08:58:21;;;;;;;49.05;7.70;;;;;;;4.61;44.53;99730.06;5071879;28;20044;-73
2022/01/31 09:00:51;;;;;;;52.03;7.63;;;;;;;4.61;44.16;99730.06;5066280;28;20064;-73
2022/01/31 09:03:32;;;;;;;50.90;7.22;;;;;;;4.86;44.29;99728.56;5064186;28;20094;-74
2022/01/31 09:06:00;;;;;;;55.22;7.53;;;;;;;4.30;45.48;99732.09;5071827;28;20049;-74
2022/01/31 09:08:26;;;;;;;42.97;7.65;;;;;;;4.80;44.12;99727.34;5071382;28;20059;-74
2022/01/31 09:10:53;;;;;;;45.08;7.85;;;;;;;4.17;45.47;99723.59;5066974;28;20056;-74
2022/01/31 09:13:19;;;;;;;49.60;7.38;;;;;;;4.92;44.36;99716.50;5072211;28;21023;-74
2022/01/31 09:15:46;;;;;;;55.38;7.43;;;;;;;4.51;44.50;99718.66;5062535;28;20045;-74
2022/01/31 09:18:13;;;;;;;53.50;7.97;;;;;;;4.63;44.36;99714.00;5053477;28;20418;-73
2022/01/31 09:20:39;;;;;;;48.22;7.53;;;;;;;4.58;44.24;99723.22;5056332;28;20098;-74
2022/01/31 09:23:06;;;;;;;48.03;6.50;;;;;;;4.81;43.93;99705.09;5054596;28;20127;-75
2022/01/31 09:25:33;;;;;;;47.08;8.13;;;;;;;4.32;44.74;99708.91;5062280;28;20111;-73
2022/01/31 09:28:02;;;;;;;45.17;7.45;;;;;;;4.26;45.01;99702.34;5057194;28;20095;-73
2022/01/31 09:30:29;;;;;;;44.45;6.50;;;;;;;4.91;43.86;99698.91;5068157;28;20131;-73
2022/01/31 09:32:57;;;;;;;58.08;8.68;;;;;;;4.65;44.65;99698.75;5070442;28;20245;-74
2022/01/31 09:35:25;;;;;;;49.00;6.95;;;;;;;4.97;43.81;99699.16;5063071;28;20110;-74
2022/01/31 09:37:52;;;;;;;45.60;8.30;;;;;;;4.99;43.94;99701.63;5054911;28;20044;-73
2022/01/31 09:40:21;;;;;;;46.30;7.32;;;;;;;4.98;43.75;99695.50;5069996;28;20044;-73
2022/01/31 09:46:00;;;;;;;36.25;6.57;;;;;;;4.75;44.13;99694.22;5071825;28;20548;-73
2022/01/31 09:48:32;;;;;;;47.22;6.78;;;;;;;4.69;44.40;99690.31;5066466;28;20076;-72
2022/01/31 09:51:10;;;;;;;47.22;6.85;;;;;;;4.25;45.27;99683.94;5065550;28;20064;-72
2022/01/31 09:53:43;;;;;;;64.53;8.13;;;;;;;4.28;45.27;99684.47;5064735;28;20565;-76
2022/01/31 09:56:13;;;;;;;46.63;7.65;;;;;;;4.26;45.61;99675.81;5071829;28;20078;-72
2022/01/31 09:58:41;;;;;;;54.22;6.90;;;;;;;4.50;45.28;99679.81;5070480;28;20053;-72
2022/01/31 10:01:12;;;;;;;50.95;7.65;;;;;;;4.73;44.52;99675.78;5050632;28;20041;-72
2022/01/31 10:03:51;;;;;;;43.17;8.05;;;;;;;4.48;45.30;99677.28;5041712;28;20048;-73
2022/01/31 10:06:19;;;;;;;59.40;7.72;;;;;;;4.73;44.65;99685.56;5041108;28;20045;-72
2022/01/31 10:08:47;;;;;;;59.40;8.15;;;;;;;4.69;44.47;99685.00;5032124;28;20046;-72
2022/01/31 10:11:28;;;;;;;47.13;6.70;;;;;;;5.00;44.06;99684.69;5032014;28;20465;-73
2022/01/31 10:16:56;;;;;;;47.83;7.05;;;;;;;4.74;44.37;99680.09;5029759;28;20057;-72
2022/01/31 10:19:44;;;;;;;58.65;7.15;;;;;;;5.03;43.53;99676.44;5012326;28;20045;-73
2022/01/31 10:22:14;;;;;;;43.80;6.43;;;;;;;4.64;44.73;99686.44;5024115;28;20070;-73
2022/01/31 10:24:44;;;;;;;39.53;6.55;;;;;;;4.34;44.74;99675.91;5031383;28;20076;-73
2022/01/31 10:27:17;;;;;;;46.88;6.43;;;;;;;4.75;44.25;99678.28;5031944;28;20049;-76
2022/01/31 10:29:46;;;;;;;41.03;7.00;;;;;;;5.25;42.75;99670.69;5030528;28;20132;-73
2022/01/31 10:32:33;;;;;;;48.60;7.95;;;;;;;5.64;41.94;99675.69;5032321;28;20157;-73
2022/01/31 10:35:03;;;;;;;47.88;7.53;;;;;;;5.19;43.05;99673.13;5033418;28;20069;-73
2022/01/31 10:37:31;;;;;;;48.35;7.68;;;;;;;5.55;42.52;99662.47;5032433;28;20069;-74
2022/01/31 10:46:04;;;;;;;45.67;6.25;;;;;;;4.86;43.61;99659.47;5031624;28;20057;-73
2022/01/31 10:56:52;;;;;;;47.55;8.25;;;;;;;6.13;41.04;99649.41;5033527;28;20049;-73
2022/01/31 10:59:32;;;;;;;44.88;7.45;;;;;;;5.95;41.19;99638.81;5032430;28;20128;-73
2022/01/31 11:02:00;;;;;;;46.75;7.55;;;;;;;5.45;42.63;99647.41;5031713;28;20080;-73
2022/01/31 11:04:36;;;;;;;57.13;9.00;;;;;;;5.73;42.01;99648.16;5032633;28;20041;-73
2022/01/31 11:07:12;;;;;;;46.75;6.63;;;;;;;5.13;43.10;99644.47;5052609;28;20112;-73
2022/01/31 11:09:40;;;;;;;43.53;6.60;;;;;;;5.93;41.68;99642.59;5061316;28;20053;-72
2022/01/31 11:12:08;;;;;;;47.65;7.18;;;;;;;6.29;40.83;99643.38;5059814;28;20477;-73
2022/01/31 11:14:40;;;;;;;45.90;6.38;;;;;;;6.08;41.32;99645.53;5074852;28;20075;-72
2022/01/31 11:17:11;;;;;;;48.97;7.47;;;;;;;6.38;40.56;99647.72;5061615;28;20045;-73
2022/01/31 11:19:39;;;;;;;;;;;;;;;6.79;40.03;99645.22;5055387;28;20053;-73
2022/01/31 11:22:08;;;;;;;44.95;7.63;;;;;;;6.57;40.27;99644.00;5058065;28;19948;-72
2022/01/31 11:24:51;;;;;;;42.75;6.47;;;;;;;6.11;40.65;99654.03;5054674;28;20132;-73
2022/01/31 11:27:21;;;;;;;38.85;6.32;;;;;;;5.44;42.76;99643.09;5057986;28;20099;-72
2022/01/31 11:29:55;;;;;;;39.80;7.30;;;;;;;4.90;44.08;99646.72;5054656;28;20401;-73
2022/01/31 11:32:23;;;;;;;38.08;6.00;;;;;;;6.38;41.07;99644.22;5055024;28;20460;-72
2022/01/31 11:34:50;;;;;;;45.08;7.70;;;;;;;6.43;40.72;99648.09;5053768;28;20053;-72
2022/01/31 11:37:20;;;;;;;40.25;6.65;;;;;;;5.90;41.95;99641.09;5066247;28;20456;-72
2022/01/31 11:39:52;;;;;;;43.22;7.03;;;;;;;6.45;40.83;99638.09;5035911;28;20131;-73
2022/01/31 11:42:20;;;;;;;52.47;7.93;;;;;;;6.65;40.20;99635.19;5054289;28;20076;-73
2022/01/31 11:44:59;;;;;;;52.22;7.40;;;;;;;6.99;39.82;99635.09;5060871;28;20050;-72
2022/01/31 11:47:29;;;;;;;44.92;6.72;;;;;;;7.10;39.49;99637.47;5074918;28;20051;-72
2022/01/31 11:49:57;;;;;;;38.60;6.78;;;;;;;6.99;39.38;99640.44;5073935;28;20049;-73
2022/01/31 11:52:25;;;;;;;37.15;7.22;;;;;;;6.78;40.21;99638.22;5074177;28;20070;-73
2022/01/31 11:54:58;;;;;;;29.70;6.53;;;;;;;6.82;40.32;99630.75;5076182;28;20049;-73
2022/01/31 11:57:27;;;;;;;46.05;7.63;;;;;;;6.18;41.36;99635.59;5076468;28;20051;-75
2022/01/31 11:59:57;;;;;;;38.03;6.07;;;;;;;6.46;41.13;99633.63;5074267;28;20505;-75
2022/01/31 12:02:25;;;;;;;34.47;6.50;;;;;;;6.10;41.67;99639.06;5074925;28;20100;-75
2022/01/31 12:04:52;;;;;;;41.30;7.60;;;;;;;6.40;41.29;99640.41;5074257;28;20057;-75
2022/01/31 12:07:38;;;;;;;27.83;6.15;;;;;;;6.31;41.34;99640.53;5069904;28;20044;-75